Time;durP1;ratioP1;P1;durP2;ratioP2;P2;SDS_P1;SDS_P2;PMS_P1;PMS_P2;Temp;Humidity;BMP_temperature;BMP_pressure;BME280_temperature;BME280_humidity;BME280_pressure;Samples;Min_cycle;Max_cycle;Signal;HPM_P1;HPM_P2
2023/03/27 00:01:57;;;;;;;;;;;1.90;99.90;;;;;;4949016;28;20009;-91
2023/03/27 00:04:28;;;;;;;;;;;3.20;99.90;;;;;;4968763;28;20289;-91
2023/03/27 00:06:58;;;;;;;;;;;1.80;99.90;;;;;;4958481;28;19977;-90
2023/03/27 00:09:36;;;;;;;;;;;;;;;;;;;;;
2023/03/27 00:12:05;;;;;;;;;;;3.20;99.90;;;;;;4973155;28;19957;-90
2023/03/27 00:14:36;;;;;;;;;;;2.80;99.90;;;;;;4960266;28;20021;-90
2023/03/27 00:17:18;;;;;;;;;;;2.80;99.90;;;;;;4963443;28;19930;-90
2023/03/27 00:19:46;;;;;;;;;;;5.20;99.90;;;;;;4957612;28;19934;-91
2023/03/27 00:22:17;;;;;;;;;;;0.80;99.90;;;;;;4957353;28;19934;-91
2023/03/27 00:24:45;;;;;;;;;;;2.80;99.90;;;;;;4974147;28;19926;-90
2023/03/27 00:27:18;;;;;;;;;;;2.50;99.90;;;;;;4969645;28;19948;-91
2023/03/27 00:29:47;;;;;;;;;;;2.30;99.90;;;;;;4957928;28;19934;-90
2023/03/27 00:32:16;;;;;;;;;;;1.90;99.90;;;;;;4976199;28;19977;-91
2023/03/27 00:34:45;;;;;;;;;;;1.90;99.90;;;;;;4950606;28;19930;-90
2023/03/27 00:37:11;;;;;;;;;;;4.20;99.90;;;;;;4973723;28;19926;-90
2023/03/27 00:39:48;;;;;;;;;;;1.30;99.90;;;;;;4974427;28;19925;-91
2023/03/27 00:42:15;;;;;;;;;;;1.70;99.90;;;;;;4986445;28;19926;-91
2023/03/27 00:44:49;;;;;;;;;;;4.80;99.90;;;;;;4952825;28;20283;-91
2023/03/27 00:47:19;;;;;;;;;;;1.40;99.90;;;;;;4973094;28;19930;-91
2023/03/27 00:49:46;;;;;;;;;;;0.60;99.90;;;;;;4976277;28;19933;-91
2023/03/27 00:52:15;;;;;;;;;;;2.10;99.90;;;;;;4957084;29;19933;-92
2023/03/27 00:54:42;;;;;;;;;;;1.10;99.90;;;;;;4956843;28;20309;-92
2023/03/27 00:57:12;;;;;;;;;;;4.50;99.90;;;;;;4955916;28;20407;-91
2023/03/27 00:59:48;;;;;;;;;;;-0.10;99.90;;;;;;4960021;28;19949;-92
2023/03/27 01:02:20;;;;;;;;;;;2.00;99.90;;;;;;4957110;29;19926;-90
2023/03/27 01:04:46;;;;;;;;;;;1.20;99.90;;;;;;4954934;28;20048;-91
2023/03/27 01:07:14;;;;;;;;;;;1.20;99.90;;;;;;4974722;28;19946;-92
2023/03/27 01:09:40;;;;;;;;;;;1.40;99.90;;;;;;4968432;28;19948;-92
2023/03/27 01:12:09;;;;;;;;;;;0.50;99.90;;;;;;4951260;29;20014;-92
2023/03/27 01:14:38;;;;;;;;;;;1.00;99.90;;;;;;4978583;28;19926;-91
2023/03/27 01:17:23;;;;;;;;;;;1.70;99.90;;;;;;4978490;28;19914;-92
2023/03/27 01:20:08;;;;;;;;;;;-1.90;99.90;;;;;;5000997;28;19914;-92
2023/03/27 01:22:53;;;;;;;;;;;-1.20;99.90;;;;;;4998112;28;19928;-91
2023/03/27 01:25:40;;;;;;;;;;;0.60;99.90;;;;;;4991733;28;19966;-91
2023/03/27 01:28:07;;;;;;;;;;;0.30;99.90;;;;;;4977791;28;19933;-91
2023/03/27 01:31:06;;;;;;;;;;;0.60;99.90;;;;;;4983183;28;19930;-91
2023/03/27 01:33:46;;;;;;;;;;;0.30;99.90;;;;;;4966799;28;19926;-91
2023/03/27 01:36:18;;;;;;;;;;;1.00;99.90;;;;;;4982369;28;19934;-91
2023/03/27 01:38:44;;;;;;;;;;;1.10;99.90;;;;;;4981038;28;19926;-91
2023/03/27 01:41:16;;;;;;;;;;;-0.50;99.90;;;;;;4975883;28;19933;-91
2023/03/27 01:43:49;;;;;;;;;;;0.30;99.90;;;;;;4979939;28;19930;-90
2023/03/27 01:46:31;;;;;;;;;;;-1.20;99.90;;;;;;4958969;28;21330;-90
2023/03/27 01:49:26;;;;;;;;;;;-2.10;99.90;;;;;;4973922;28;20005;-91
2023/03/27 01:52:10;;;;;;;;;;;1.00;99.90;;;;;;4952574;28;20402;-91
2023/03/27 01:54:54;;;;;;;;;;;-0.30;99.90;;;;;;4968747;28;19937;-92
2023/03/27 01:57:47;;;;;;;;;;;1.10;99.90;;;;;;4960364;28;19933;-90
2023/03/27 02:00:20;;;;;;;;;;;0.40;99.90;;;;;;4982758;28;19914;-90
2023/03/27 02:02:52;;;;;;;;;;;0.80;99.90;;;;;;4972962;28;19937;-90
2023/03/27 02:05:38;;;;;;;;;;;0.80;99.90;;;;;;4981981;28;20342;-92
2023/03/27 02:08:19;;;;;;;;;;;-2.10;99.90;;;;;;4968068;28;19933;-91
2023/03/27 02:10:56;;;;;;;;;;;0.30;99.90;;;;;;4975569;28;19930;-90
2023/03/27 02:13:25;;;;;;;;;;;0.60;99.90;;;;;;4975236;28;19930;-89
2023/03/27 02:15:57;;;;;;;;;;;0.00;99.90;;;;;;4990441;28;19933;-90
2023/03/27 02:18:36;;;;;;;;;;;1.10;99.90;;;;;;4977328;28;19930;-91
2023/03/27 02:21:15;;;;;;;;;;;1.30;99.90;;;;;;4970492;28;20045;-90
2023/03/27 02:23:42;;;;;;;;;;;0.70;99.90;;;;;;4974441;28;20062;-92
2023/03/27 02:26:24;;;;;;;;;;;2.20;99.90;;;;;;4958437;28;20051;-90
2023/03/27 02:29:11;;;;;;;;;;;1.80;99.90;;;;;;4948496;28;19926;-91
2023/03/27 02:31:40;;;;;;;;;;;0.30;99.90;;;;;;4974720;28;19933;-91
2023/03/27 02:34:27;;;;;;;;;;;0.30;99.90;;;;;;4971366;28;19933;-91
2023/03/27 02:37:14;;;;;;;;;;;0.60;99.90;;;;;;4968127;28;19934;-89
2023/03/27 02:39:49;;;;;;;;;;;0.40;99.90;;;;;;4954102;29;19933;-90
2023/03/27 02:42:36;;;;;;;;;;;0.40;99.90;;;;;;4971607;28;20403;-89
2023/03/27 02:45:21;;;;;;;;;;;0.10;99.90;;;;;;4973802;28;19965;-91
2023/03/27 02:47:57;;;;;;;;;;;0.40;99.90;;;;;;4974035;28;19926;-91
2023/03/27 02:50:29;;;;;;;;;;;2.00;99.90;;;;;;4953032;28;19988;-91
2023/03/27 02:53:00;;;;;;;;;;;1.00;99.90;;;;;;4966343;28;19934;-91
2023/03/27 02:55:32;;;;;;;;;;;2.20;99.90;;;;;;4957245;28;20389;-91
2023/03/27 02:58:29;;;;;;;;;;;-1.00;99.90;;;;;;4973249;28;19934;-91
2023/03/27 03:01:08;;;;;;;;;;;2.70;99.90;;;;;;4965679;28;20633;-91
2023/03/27 03:04:02;;;;;;;;;;;2.00;99.90;;;;;;4959678;28;19933;-91
2023/03/27 03:06:31;;;;;;;;;;;1.20;99.90;;;;;;4973839;28;19926;-90
2023/03/27 03:09:02;;;;;;;;;;;1.20;99.90;;;;;;4950771;29;19930;-91
2023/03/27 03:11:36;;;;;;;;;;;0.70;99.90;;;;;;4967476;28;19932;-90
2023/03/27 03:14:02;;;;;;;;;;;-0.60;99.90;;;;;;4968169;28;20013;-92
2023/03/27 03:16:37;;;;;;;;;;;0.10;99.90;;;;;;4991435;28;20414;-90
2023/03/27 03:19:06;;;;;;;;;;;-1.70;99.90;;;;;;4958234;28;19932;-90
2023/03/27 03:21:31;;;;;;;;;;;0.50;99.90;;;;;;4957826;28;19976;-90
2023/03/27 03:24:08;;;;;;;;;;;;;;;;;;;;;
2023/03/27 03:26:36;;;;;;;;;;;-2.10;99.90;;;;;;5005752;28;19926;-90
2023/03/27 03:29:04;;;;;;;;;;;3.60;99.90;;;;;;4950505;28;19934;-91
2023/03/27 03:31:41;;;;;;;;;;;0.10;99.90;;;;;;4941758;29;19934;-91
2023/03/27 03:34:08;;;;;;;;;;;0.00;99.90;;;;;;4969431;28;19961;-89
2023/03/27 03:36:40;;;;;;;;;;;1.70;99.90;;;;;;4973319;28;19933;-91
2023/03/27 03:39:11;;;;;;;;;;;-0.10;99.90;;;;;;4946010;28;20454;-90
2023/03/27 03:41:37;;;;;;;;;;;2.50;99.90;;;;;;4988047;28;19930;-90
2023/03/27 03:44:02;;;;;;;;;;;2.30;99.90;;;;;;4967504;28;19925;-89
2023/03/27 03:46:28;;;;;;;;;;;0.80;99.90;;;;;;4982913;28;20350;-91
2023/03/27 03:48:54;;;;;;;;;;;0.20;99.90;;;;;;4962367;28;19926;-90
2023/03/27 03:51:22;;;;;;;;;;;-0.10;99.90;;;;;;4977522;28;19942;-90
2023/03/27 03:53:48;;;;;;;;;;;-0.10;99.90;;;;;;4961064;28;19976;-90
2023/03/27 03:56:20;;;;;;;;;;;-1.90;99.90;;;;;;4958487;28;20012;-91
2023/03/27 03:58:45;;;;;;;;;;;-0.50;99.90;;;;;;4974996;28;19926;-90
2023/03/27 04:01:19;;;;;;;;;;;-0.40;99.90;;;;;;4956852;28;19957;-88
2023/03/27 04:03:48;;;;;;;;;;;0.80;99.90;;;;;;4979063;28;19965;-90
2023/03/27 04:06:16;;;;;;;;;;;0.60;99.90;;;;;;4976299;28;19933;-88
2023/03/27 04:08:51;;;;;;;;;;;0.50;99.90;;;;;;4975761;28;19933;-90
2023/03/27 04:11:17;;;;;;;;;;;0.40;99.90;;;;;;4958481;28;20404;-91
2023/03/27 04:13:43;;;;;;;;;;;0.20;99.90;;;;;;4975658;28;20017;-90
2023/03/27 04:16:09;;;;;;;;;;;2.80;99.90;;;;;;4953443;28;20013;-91
2023/03/27 04:18:41;;;;;;;;;;;-1.50;99.90;;;;;;4953756;28;19927;-90
2023/03/27 04:21:13;;;;;;;;;;;1.80;99.90;;;;;;4989290;28;19948;-91
2023/03/27 04:23:41;;;;;;;;;;;0.40;99.90;;;;;;4978409;28;19934;-91
2023/03/27 04:26:10;;;;;;;;;;;-0.20;99.90;;;;;;4995856;28;19934;-91
2023/03/27 04:28:37;;;;;;;;;;;-0.10;99.90;;;;;;4965968;28;19981;-90
2023/03/27 04:31:09;;;;;;;;;;;0.10;99.90;;;;;;4994659;28;20282;-92
2023/03/27 04:33:38;;;;;;;;;;;-0.20;99.90;;;;;;4979754;28;19925;-90
2023/03/27 04:36:06;;;;;;;;;;;-0.20;99.90;;;;;;4961753;28;20013;-91
2023/03/27 04:38:33;;;;;;;;;;;-1.40;99.90;;;;;;4959930;28;19933;-90
2023/03/27 04:41:02;;;;;;;;;;;-0.20;99.90;;;;;;4974190;28;20020;-91
2023/03/27 04:43:35;;;;;;;;;;;-2.40;99.90;;;;;;4975870;28;19938;-90
2023/03/27 04:46:01;;;;;;;;;;;1.30;99.90;;;;;;4959834;28;19930;-91
2023/03/27 04:48:30;;;;;;;;;;;-0.10;99.90;;;;;;4976254;28;19926;-90
2023/03/27 04:50:58;;;;;;;;;;;2.60;99.90;;;;;;4976383;28;19926;-90
2023/03/27 04:53:29;;;;;;;;;;;0.30;99.90;;;;;;4962789;28;19930;-90
2023/03/27 04:55:56;;;;;;;;;;;-0.80;99.90;;;;;;4959602;28;19973;-89
2023/03/27 04:58:24;;;;;;;;;;;-0.40;99.90;;;;;;4976569;28;20020;-89
2023/03/27 05:00:54;;;;;;;;;;;1.00;99.90;;;;;;4970049;28;19925;-91
2023/03/27 05:03:22;;;;;;;;;;;-0.40;99.90;;;;;;4962205;28;19930;-90
2023/03/27 05:05:48;;;;;;;;;;;-0.40;99.90;;;;;;4943707;28;19927;-90
2023/03/27 05:08:20;;;;;;;;;;;0.20;99.90;;;;;;4972176;28;19933;-90
2023/03/27 05:10:46;;;;;;;;;;;0.20;99.90;;;;;;4961476;28;19926;-91
2023/03/27 05:13:12;;;;;;;;;;;2.70;99.90;;;;;;4962257;28;19926;-88
2023/03/27 05:15:40;;;;;;;;;;;1.50;99.90;;;;;;4959282;28;19926;-89
2023/03/27 05:18:07;;;;;;;;;;;1.10;99.90;;;;;;4981567;28;19934;-90
2023/03/27 05:20:36;;;;;;;;;;;1.70;99.90;;;;;;4953861;28;19996;-90
2023/03/27 05:23:07;;;;;;;;;;;3.70;99.90;;;;;;4959449;28;19933;-90
2023/03/27 05:25:44;;;;;;;;;;;0.60;99.90;;;;;;4958606;28;19926;-91
2023/03/27 05:30:59;;;;;;;;;;;2.60;99.90;;;;;;4978699;28;19932;-89
2023/03/27 05:33:29;;;;;;;;;;;1.70;99.90;;;;;;4962704;28;20329;-91
2023/03/27 05:36:04;;;;;;;;;;;2.30;99.90;;;;;;4972963;28;19926;-91
2023/03/27 05:38:32;;;;;;;;;;;1.20;99.90;;;;;;4977650;28;19925;-92
2023/03/27 05:41:01;;;;;;;;;;;1.10;99.90;;;;;;4958395;28;19926;-91
2023/03/27 05:43:29;;;;;;;;;;;1.40;99.90;;;;;;4978782;28;19925;-90
2023/03/27 05:46:00;;;;;;;;;;;1.90;99.90;;;;;;4961342;28;19948;-91
2023/03/27 05:48:26;;;;;;;;;;;0.30;99.90;;;;;;4962284;28;19933;-90
2023/03/27 05:50:57;;;;;;;;;;;1.00;99.90;;;;;;4960934;28;20005;-89
2023/03/27 05:53:23;;;;;;;;;;;-1.30;99.90;;;;;;5015856;28;19933;-88
2023/03/27 05:56:02;;;;;;;;;;;3.00;99.90;;;;;;4990667;28;19934;-89
2023/03/27 05:58:27;;;;;;;;;;;1.60;99.90;;;;;;4980902;28;19989;-89
2023/03/27 06:01:02;;;;;;;;;;;0.90;99.90;;;;;;4976791;28;19926;-90
2023/03/27 06:03:33;;;;;;;;;;;1.40;99.90;;;;;;4978257;28;19926;-90
2023/03/27 06:05:59;;;;;;;;;;;0.90;99.90;;;;;;4971050;28;19942;-90
2023/03/27 06:08:28;;;;;;;;;;;1.50;99.90;;;;;;4975872;28;19933;-90
2023/03/27 06:10:56;;;;;;;;;;;-0.40;99.90;;;;;;4990073;28;19925;-90
2023/03/27 06:13:23;;;;;;;;;;;2.30;99.90;;;;;;5000880;28;19926;-89
2023/03/27 06:16:04;;;;;;;;;;;1.20;99.90;;;;;;4995979;28;19964;-91
2023/03/27 06:18:36;;;;;;;;;;;1.40;99.90;;;;;;4981120;28;19926;-90
2023/03/27 06:21:02;;;;;;;;;;;2.20;99.90;;;;;;4977971;28;19930;-90
2023/03/27 06:23:27;;;;;;;;;;;0.90;99.90;;;;;;4997834;28;19949;-91
2023/03/27 06:26:11;;;;;;;;;;;1.60;99.90;;;;;;4980492;28;19925;-90
2023/03/27 06:28:40;;;;;;;;;;;1.00;99.90;;;;;;4962248;28;20049;-91
2023/03/27 06:31:13;;;;;;;;;;;2.50;99.90;;;;;;4962063;28;19992;-91
2023/03/27 06:33:39;;;;;;;;;;;1.30;99.90;;;;;;4961523;28;20018;-90
2023/03/27 06:36:08;;;;;;;;;;;1.80;99.90;;;;;;4958460;28;19949;-91
2023/03/27 06:38:43;;;;;;;;;;;2.20;99.90;;;;;;4969986;28;20423;-91
2023/03/27 06:41:16;;;;;;;;;;;1.90;99.90;;;;;;4976810;28;20350;-91
2023/03/27 06:43:42;;;;;;;;;;;1.70;99.90;;;;;;4960782;28;19926;-90
2023/03/27 06:46:10;;;;;;;;;;;2.00;99.90;;;;;;4948332;28;20341;-91
2023/03/27 06:48:38;;;;;;;;;;;4.60;99.90;;;;;;4938312;29;19933;-90
2023/03/27 06:51:16;;;;;;;;;;;4.40;99.90;;;;;;4952189;28;20009;-90
2023/03/27 06:53:41;;;;;;;;;;;2.60;99.90;;;;;;4937277;29;20397;-90
2023/03/27 06:56:15;;;;;;;;;;;2.30;99.90;;;;;;4931575;28;20023;-90
2023/03/27 06:58:41;;;;;;;;;;;3.90;99.90;;;;;;4952042;29;20033;-91
2023/03/27 07:01:22;;;;;;;;;;;3.60;99.90;;;;;;4941589;28;19996;-90
2023/03/27 07:03:50;;;;;;;;;;;2.60;99.90;;;;;;4954907;28;20339;-90
2023/03/27 07:06:18;;;;;;;;;;;3.50;99.90;;;;;;4941504;28;20063;-90
2023/03/27 07:08:51;;;;;;;;;;;0.40;99.90;;;;;;4931563;29;19927;-91
2023/03/27 07:11:17;;;;;;;;;;;2.90;99.90;;;;;;4938515;28;20302;-90
2023/03/27 07:13:42;;;;;;;;;;;2.80;99.90;;;;;;4941126;28;19933;-90
2023/03/27 07:16:11;;;;;;;;;;;3.20;99.90;;;;;;4962954;28;20333;-91
2023/03/27 07:18:57;;;;;;;;;;;0.80;99.90;;;;;;4938757;28;19933;-90
2023/03/27 07:21:28;;;;;;;;;;;3.10;99.90;;;;;;4973373;28;19927;-89
2023/03/27 07:23:56;;;;;;;;;;;3.10;99.90;;;;;;4929501;29;19927;-90
2023/03/27 07:26:24;;;;;;;;;;;3.50;99.90;;;;;;4930005;29;20372;-91
2023/03/27 07:28:53;;;;;;;;;;;3.60;99.90;;;;;;4933504;29;19927;-91
2023/03/27 07:31:19;;;;;;;;;;;2.60;99.90;;;;;;4938256;28;19926;-90
2023/03/27 07:33:47;;;;;;;;;;;3.60;99.90;;;;;;4942565;29;19978;-91
2023/03/27 07:36:13;;;;;;;;;;;3.50;99.90;;;;;;4938192;28;19926;-91
2023/03/27 07:38:45;;;;;;;;;;;3.60;99.90;;;;;;4932204;29;19967;-91
2023/03/27 07:41:17;;;;;;;;;;;3.80;99.90;;;;;;4935906;28;19931;-91
2023/03/27 07:43:46;;;;;;;;;;;2.70;99.90;;;;;;4931398;29;20394;-90
2023/03/27 07:46:14;;;;;;;;;;;4.50;99.90;;;;;;4965562;28;20008;-90
2023/03/27 07:48:42;;;;;;;;;;;5.40;99.90;;;;;;4963619;28;19926;-90
2023/03/27 07:51:08;;;;;;;;;;;4.60;99.90;;;;;;4954279;28;20266;-90
2023/03/27 07:53:40;;;;;;;;;;;4.30;99.90;;;;;;4947573;28;19926;-92
2023/03/27 07:56:09;;;;;;;;;;;2.80;99.90;;;;;;4976278;28;19977;-90
2023/03/27 07:58:38;;;;;;;;;;;4.00;99.90;;;;;;4952895;28;20409;-91
2023/03/27 08:01:06;;;;;;;;;;;3.90;99.90;;;;;;4972804;28;19976;-91
2023/03/27 08:03:42;;;;;;;;;;;3.40;99.90;;;;;;4965854;28;19934;-91
2023/03/27 08:06:08;;;;;;;;;;;3.70;99.90;;;;;;4953894;29;19933;-91
2023/03/27 08:08:34;;;;;;;;;;;4.10;99.90;;;;;;4954552;28;19926;-91
2023/03/27 08:11:03;;;;;;;;;;;3.70;99.90;;;;;;4952622;29;20272;-91
2023/03/27 08:13:31;;;;;;;;;;;3.80;99.90;;;;;;4969754;28;20445;-91
2023/03/27 08:16:06;;;;;;;;;;;3.50;99.90;;;;;;4973326;28;19926;-91
2023/03/27 08:18:32;;;;;;;;;;;6.00;99.90;;;;;;4972664;28;19926;-90
2023/03/27 08:21:02;;;;;;;;;;;3.80;99.90;;;;;;4972909;28;19937;-91
2023/03/27 08:23:33;;;;;;;;;;;3.70;99.90;;;;;;4973402;28;19926;-90
2023/03/27 08:26:17;;;;;;;;;;;6.80;99.90;;;;;;4955699;28;19957;-91
2023/03/27 08:28:45;;;;;;;;;;;4.00;99.90;;;;;;4971283;28;20005;-91
2023/03/27 08:31:17;;;;;;;;;;;3.50;99.90;;;;;;4957111;28;20013;-91
2023/03/27 08:33:43;;;;;;;;;;;2.00;99.90;;;;;;4948119;29;19926;-91
2023/03/27 08:36:14;;;;;;;;;;;1.20;99.90;;;;;;4957469;28;19934;-90
2023/03/27 08:38:44;;;;;;;;;;;2.10;99.90;;;;;;4950225;28;20373;-89
2023/03/27 08:41:18;;;;;;;;;;;4.40;99.90;;;;;;4972360;28;20402;-91
2023/03/27 08:43:44;;;;;;;;;;;4.20;99.90;;;;;;4966898;28;19933;-89
2023/03/27 08:46:24;;;;;;;;;;;4.00;99.90;;;;;;4954565;28;19934;-91
2023/03/27 08:48:59;;;;;;;;;;;4.20;99.90;;;;;;4974184;28;20520;-91
2023/03/27 08:51:40;;;;;;;;;;;4.30;99.90;;;;;;4949287;28;20004;-90
2023/03/27 08:54:15;;;;;;;;;;;2.80;99.90;;;;;;4973406;28;20013;-92
2023/03/27 08:56:41;;;;;;;;;;;6.00;99.90;;;;;;4948202;28;19977;-91
2023/03/27 08:59:20;;;;;;;;;;;4.90;99.90;;;;;;4956747;28;19926;-92
2023/03/27 09:01:55;;;;;;;;;;;5.20;99.90;;;;;;4957162;28;19933;-92
2023/03/27 09:04:30;;;;;;;;;;;5.70;99.90;;;;;;4976124;28;19930;-92
2023/03/27 09:06:56;;;;;;;;;;;5.10;99.90;;;;;;4960893;28;19927;-92
2023/03/27 09:09:45;;;;;;;;;;;5.50;99.90;;;;;;4971579;28;19926;-91
2023/03/27 09:12:17;;;;;;;;;;;5.90;99.90;;;;;;4951089;28;19948;-90
2023/03/27 09:14:50;;;;;;;;;;;4.50;99.90;;;;;;4975546;28;19944;-92
2023/03/27 09:17:24;;;;;;;;;;;6.20;99.90;;;;;;4950981;28;19926;-91
2023/03/27 09:19:58;;;;;;;;;;;6.00;99.90;;;;;;4993607;28;20020;-92
2023/03/27 09:22:30;;;;;;;;;;;6.00;99.90;;;;;;4958374;28;19928;-91
2023/03/27 09:25:09;;;;;;;;;;;;;;;;;;;;;
2023/03/27 09:27:39;;;;;;;;;;;6.30;99.90;;;;;;4966394;28;19926;-91
2023/03/27 09:30:13;;;;;;;;;;;6.60;99.90;;;;;;4965945;28;19926;-91
2023/03/27 09:32:53;;;;;;;;;;;6.40;99.90;;;;;;4971990;28;19930;-92
2023/03/27 09:35:37;;;;;;;;;;;;;;;;;;;;;
2023/03/27 09:38:23;;;;;;;;;;;;;;;;;;;;;
2023/03/27 09:41:12;;;;;;;;;;;6.60;99.90;;;;;;4974659;28;19977;-94
2023/03/27 09:44:05;;;;;;;;;;;6.80;99.90;;;;;;4973433;28;19926;-93
2023/03/27 09:46:48;;;;;;;;;;;6.40;99.90;;;;;;4980194;28;19926;-91
2023/03/27 09:49:18;;;;;;;;;;;5.30;99.90;;;;;;4968717;28;20363;-90
2023/03/27 09:51:46;;;;;;;;;;;6.40;99.90;;;;;;4974368;28;20274;-91
2023/03/27 09:54:16;;;;;;;;;;;7.20;99.90;;;;;;4978778;28;19990;-91
2023/03/27 09:57:12;;;;;;;;;;;6.30;99.90;;;;;;4980815;28;19981;-92
2023/03/27 10:00:20;;;;;;;;;;;6.40;99.90;;;;;;4961010;28;19925;-93
2023/03/27 10:03:25;;;;;;;;;;;;;;;;;;;;;
2023/03/27 10:06:06;;;;;;;;;;;6.90;99.90;;;;;;4983004;28;19930;-90
2023/03/27 10:08:45;;;;;;;;;;;7.00;99.90;;;;;;4966494;28;19915;-88
2023/03/27 10:11:37;;;;;;;;;;;7.40;99.90;;;;;;4981862;28;19914;-91
2023/03/27 10:14:33;;;;;;;;;;;6.90;99.90;;;;;;4993322;28;19926;-91
2023/03/27 10:17:10;;;;;;;;;;;6.60;99.90;;;;;;4955289;28;19921;-90
2023/03/27 10:20:45;;;;;;;;;;;6.40;99.90;;;;;;4966500;28;19953;-92
2023/03/27 10:23:00;;;;;;;;;;;6.90;99.90;;;;;;4978987;28;19926;-93
2023/03/27 10:25:51;;;;;;;;;;;7.00;99.90;;;;;;4967999;28;19930;-91
2023/03/27 10:28:23;;;;;;;;;;;7.40;99.90;;;;;;4985218;28;19925;-91
2023/03/27 10:31:20;;;;;;;;;;;7.20;99.90;;;;;;4998410;28;20080;-90
2023/03/27 10:33:47;;;;;;;;;;;7.50;99.90;;;;;;4954872;28;20622;-91
2023/03/27 10:36:19;;;;;;;;;;;5.90;99.90;;;;;;4963768;28;19969;-91
2023/03/27 10:38:59;;;;;;;;;;;9.70;99.90;;;;;;4963077;28;20293;-94
2023/03/27 10:41:28;;;;;;;;;;;7.90;99.90;;;;;;4959031;28;20291;-92
2023/03/27 10:43:59;;;;;;;;;;;8.30;99.90;;;;;;4986511;28;20451;-92
2023/03/27 10:46:38;;;;;;;;;;;5.80;99.90;;;;;;4973813;28;19926;-92
2023/03/27 10:49:12;;;;;;;;;;;9.60;99.90;;;;;;4973555;28;19926;-92
2023/03/27 10:51:43;;;;;;;;;;;7.70;99.90;;;;;;4965010;28;19926;-92
2023/03/27 10:54:35;;;;;;;;;;;8.50;99.90;;;;;;4973289;28;19933;-92
2023/03/27 10:57:21;;;;;;;;;;;7.90;99.90;;;;;;4924729;28;19981;-88
2023/03/27 11:00:12;;;;;;;;;;;8.20;99.90;;;;;;4953295;28;19933;-92
2023/03/27 11:03:02;;;;;;;;;;;8.60;99.90;;;;;;4966527;28;19929;-91
2023/03/27 11:05:45;;;;;;;;;;;8.40;99.90;;;;;;4971648;28;19926;-93
2023/03/27 11:08:21;;;;;;;;;;;6.40;99.90;;;;;;4972055;28;19973;-92
2023/03/27 11:10:58;;;;;;;;;;;8.40;99.90;;;;;;4947748;28;19926;-90
2023/03/27 11:14:08;;;;;;;;;;;8.80;99.90;;;;;;4957059;28;19930;-91
2023/03/27 11:16:43;;;;;;;;;;;;;;;;;;;;;
2023/03/27 11:27:09;;;;;;;;;;;7.90;99.90;;;;;;4841308;29;19961;-92
2023/03/27 11:29:58;;;;;;;;;;;10.40;99.90;;;;;;4853996;29;19998;-91
2023/03/27 11:32:27;;;;;;;;;;;11.30;99.90;;;;;;4903092;29;19935;-90
2023/03/27 11:35:03;;;;;;;;;;;8.70;99.90;;;;;;4961772;28;20040;-90
2023/03/27 11:37:41;;;;;;;;;;;6.90;99.90;;;;;;4965698;28;20338;-90
2023/03/27 11:40:28;;;;;;;;;;;6.70;99.90;;;;;;4961395;28;19933;-90
2023/03/27 11:43:12;;;;;;;;;;;6.30;99.90;;;;;;4977210;28;19929;-93
2023/03/27 11:46:03;;;;;;;;;;;6.10;99.90;;;;;;4954558;28;20004;-92
2023/03/27 11:48:57;;;;;;;;;;;;;;;;;;;;;
2023/03/27 11:51:59;;;;;;;;;;;;;;;;;;;;;
2023/03/27 11:55:06;;;;;;;;;;;;;;;;;;;;;
2023/03/27 12:01:11;;;;;;;;;;;;;;;;;;;;;
2023/03/27 12:04:02;;;;;;;;;;;8.60;99.90;;;;;;4971857;28;19926;-91
2023/03/27 12:06:31;;;;;;;;;;;8.40;99.90;;;;;;4947963;28;20282;-92
2023/03/27 12:09:19;;;;;;;;;;;6.50;99.90;;;;;;4955989;28;19930;-92
2023/03/27 12:11:50;;;;;;;;;;;8.20;99.90;;;;;;4973481;28;20290;-90
2023/03/27 12:14:29;;;;;;;;;;;8.40;99.90;;;;;;4956280;28;19927;-92
2023/03/27 12:17:18;;;;;;;;;;;8.60;99.90;;;;;;4967551;28;20278;-93
2023/03/27 12:19:56;;;;;;;;;;;9.30;99.90;;;;;;4957313;28;19926;-91
2023/03/27 12:22:52;;;;;;;;;;;6.50;99.90;;;;;;4965786;28;19926;-89
2023/03/27 12:34:42;;;;;;;;;;;9.10;99.90;;;;;;4954497;28;19988;-91
2023/03/27 12:37:11;;;;;;;;;;;9.00;99.10;;;;;;4970385;28;20326;-94
2023/03/27 12:40:09;;;;;;;;;;;6.30;99.80;;;;;;4949363;28;20009;-91
2023/03/27 12:42:43;;;;;;;;;;;10.70;99.90;;;;;;4956007;28;20021;-91
2023/03/27 12:45:22;;;;;;;;;;;8.60;99.90;;;;;;4974772;28;19932;-88
2023/03/27 12:48:08;;;;;;;;;;;10.60;99.90;;;;;;4976389;28;19926;-90
2023/03/27 12:50:56;;;;;;;;;;;8.30;99.90;;;;;;4972157;28;19934;-89
2023/03/27 12:53:41;;;;;;;;;;;8.40;99.90;;;;;;4980422;28;19926;-93
2023/03/27 12:56:41;;;;;;;;;;;7.90;99.90;;;;;;4980935;28;19925;-91
2023/03/27 12:59:30;;;;;;;;;;;8.30;99.90;;;;;;4962313;28;19926;-90
2023/03/27 13:02:08;;;;;;;;;;;;;;;;;;;;;
2023/03/27 13:07:35;;;;;;;;;;;8.90;99.90;;;;;;4946490;28;19953;-94
2023/03/27 13:10:27;;;;;;;;;;;8.50;99.90;;;;;;4966074;28;19988;-91
2023/03/27 13:13:09;;;;;;;;;;;10.20;99.90;;;;;;4968122;28;19926;-92
2023/03/27 13:16:14;;;;;;;;;;;;;;;;;;;;;
2023/03/27 13:19:19;;;;;;;;;;;8.90;99.90;;;;;;4935203;29;19927;-91
2023/03/27 13:21:59;;;;;;;;;;;9.30;99.90;;;;;;4916788;29;20058;-90
2023/03/27 13:25:06;;;;;;;;;;;7.70;99.90;;;;;;4941067;28;19926;-91
2023/03/27 13:28:22;;;;;;;;;;;7.20;99.90;;;;;;4908092;29;20008;-92
2023/03/27 13:30:54;;;;;;;;;;;9.30;99.90;;;;;;4929714;29;19938;-91
2023/03/27 13:33:34;;;;;;;;;;;8.60;99.90;;;;;;4912059;29;20413;-90
2023/03/27 13:36:23;;;;;;;;;;;8.20;99.90;;;;;;4905129;29;19978;-89
2023/03/27 13:39:06;;;;;;;;;;;7.70;99.90;;;;;;4922809;29;19954;-91
2023/03/27 13:41:44;;;;;;;;;;;5.90;99.90;;;;;;4912770;29;20352;-92
2023/03/27 13:44:18;;;;;;;;;;;5.90;99.90;;;;;;4898555;29;19927;-90
2023/03/27 13:47:03;;;;;;;;;;;5.40;99.90;;;;;;4975688;28;20274;-90
2023/03/27 13:49:57;;;;;;;;;;;8.60;99.90;;;;;;4972808;28;20330;-89
2023/03/27 13:52:28;;;;;;;;;;;3.10;99.90;;;;;;4961170;28;19934;-91
2023/03/27 13:55:17;;;;;;;;;;;5.50;99.90;;;;;;4977859;28;19940;-92
2023/03/27 13:58:10;;;;;;;;;;;5.20;99.90;;;;;;4966556;28;19925;-94
2023/03/27 14:00:57;;;;;;;;;;;3.30;99.90;;;;;;4977686;28;19937;-91
2023/03/27 14:03:43;;;;;;;;;;;5.50;99.90;;;;;;4974177;28;19937;-92
2023/03/27 14:06:19;;;;;;;;;;;6.00;99.90;;;;;;4981562;28;19925;-93
2023/03/27 14:08:58;;;;;;;;;;;6.20;99.90;;;;;;4973978;28;19933;-93
2023/03/27 14:11:36;;;;;;;;;;;7.10;99.90;;;;;;4971344;28;19926;-93
2023/03/27 14:14:21;;;;;;;;;;;7.50;99.90;;;;;;5004811;28;19926;-91
2023/03/27 14:16:49;;;;;;;;;;;7.60;99.90;;;;;;5013983;28;20013;-92
2023/03/27 14:19:36;;;;;;;;;;;8.40;99.90;;;;;;5001221;28;19910;-91
2023/03/27 14:22:04;;;;;;;;;;;8.40;99.90;;;;;;4990572;28;19933;-90
2023/03/27 14:24:43;;;;;;;;;;;8.20;99.90;;;;;;4968517;28;19930;-91
2023/03/27 14:27:19;;;;;;;;;;;8.20;99.90;;;;;;4983994;28;19926;-90
2023/03/27 14:30:17;;;;;;;;;;;;;;;;;;;;;
2023/03/27 14:36:46;;;;;;;;;;;8.70;99.90;;;;;;4897856;29;19928;-93
2023/03/27 14:39:22;;;;;;;;;;;8.60;99.90;;;;;;4892781;29;19927;-92
2023/03/27 14:42:28;;;;;;;;;;;8.70;99.90;;;;;;4960202;28;19930;-92
2023/03/27 14:45:12;;;;;;;;;;;9.20;99.90;;;;;;4930433;28;19965;-93
2023/03/27 14:51:12;;;;;;;;;;;7.70;99.90;;;;;;4902902;29;19927;-92
2023/03/27 15:18:42;;;;;;;;;;;7.30;99.90;;;;;;4677138;30;20400;-92
2023/03/27 15:31:47;;;;;;;;;;;7.40;99.90;;;;;;5066463;27;2105345;-95
2023/03/27 15:34:13;;;;;;;;;;;7.50;99.90;;;;;;5097565;28;19923;-96
2023/03/27 15:36:46;;;;;;;;;;;7.60;99.90;;;;;;5090110;28;19924;-95
2023/03/27 15:39:25;;;;;;;;;;;8.10;99.90;;;;;;5108180;28;20415;-95
2023/03/27 15:42:04;;;;;;;;;;;7.60;99.90;;;;;;5086185;28;19931;-96
2023/03/27 15:44:48;;;;;;;;;;;7.40;99.90;;;;;;5112794;28;19945;-96
2023/03/27 15:47:22;;;;;;;;;;;9.50;99.90;;;;;;5100742;23;19928;-94
2023/03/27 15:50:07;;;;;;;;;;;6.60;99.90;;;;;;5067672;28;19931;-95
2023/03/27 15:52:36;;;;;;;;;;;6.70;99.90;;;;;;5081805;28;20046;-96
2023/03/27 15:55:02;;;;;;;;;;;6.90;99.90;;;;;;5067797;28;19964;-95
2023/03/27 15:57:31;;;;;;;;;;;6.60;99.90;;;;;;5081251;28;20550;-95
2023/03/27 16:00:01;;;;;;;;;;;5.20;99.90;;;;;;5088080;28;19920;-95
2023/03/27 16:02:27;;;;;;;;;;;8.70;99.90;;;;;;5076674;28;19925;-96
2023/03/27 16:04:59;;;;;;;;;;;6.50;99.90;;;;;;5075960;28;20016;-96
2023/03/27 16:07:27;;;;;;;;;;;5.70;99.90;;;;;;5093750;28;19931;-95
2023/03/27 16:09:55;;;;;;;;;;;7.00;99.90;;;;;;5068319;28;19971;-95
2023/03/27 16:12:31;;;;;;;;;;;5.50;99.90;;;;;;5086361;28;19995;-95
2023/03/27 16:14:57;;;;;;;;;;;7.20;99.90;;;;;;5071229;28;19980;-95
2023/03/27 16:17:37;;;;;;;;;;;6.70;99.90;;;;;;5069236;28;20444;-94
2023/03/27 16:20:08;;;;;;;;;;;7.40;99.90;;;;;;5080427;28;20465;-96
2023/03/27 16:22:37;;;;;;;;;;;6.70;99.90;;;;;;5095307;28;19932;-96
2023/03/27 16:25:05;;;;;;;;;;;6.90;99.90;;;;;;5096724;23;19990;-96
2023/03/27 16:27:32;;;;;;;;;;;6.40;99.90;;;;;;5059287;28;20004;-94
2023/03/27 16:29:58;;;;;;;;;;;6.70;99.90;;;;;;5055257;28;19924;-96
2023/03/27 16:32:24;;;;;;;;;;;5.80;99.90;;;;;;5041929;28;20015;-95
2023/03/27 16:34:50;;;;;;;;;;;6.70;99.90;;;;;;5023327;28;19932;-95
2023/03/27 16:37:20;;;;;;;;;;;6.60;99.90;;;;;;5062721;28;19925;-94
2023/03/27 16:39:46;;;;;;;;;;;6.50;99.90;;;;;;5040446;28;20497;-94